Time;durP1;ratioP1;P1;durP2;ratioP2;P2;SDS_P1;SDS_P2;PMS_P1;PMS_P2;Temp;Humidity;BMP_temperature;BMP_pressure;BME280_temperature;BME280_humidity;BME280_pressure;Samples;Min_cycle;Max_cycle;Signal;HPM_P1;HPM_P2
2021/12/20 00:02:04;;;;;;;35.53;22.55;;;9.00;72.10;;;;;;6112718;23;20442;-54
2021/12/20 00:04:30;;;;;;;39.35;22.77;;;9.00;72.10;;;;;;6116051;23;20025;-57
2021/12/20 00:06:57;;;;;;;46.13;23.95;;;9.00;72.10;;;;;;6110871;23;20025;-54
2021/12/20 00:09:23;;;;;;;49.15;25.08;;;9.00;72.20;;;;;;6114812;23;20442;-54
2021/12/20 00:11:49;;;;;;;44.55;24.33;;;8.90;72.20;;;;;;6114207;23;20013;-57
2021/12/20 00:14:15;;;;;;;42.67;23.45;;;8.90;72.30;;;;;;6114656;23;20427;-56
2021/12/20 00:16:41;;;;;;;43.67;23.08;;;8.90;72.40;;;;;;6113248;23;20315;-55
2021/12/20 00:19:10;;;;;;;44.67;23.63;;;8.90;72.50;;;;;;6114083;23;20323;-57
2021/12/20 00:21:37;;;;;;;38.88;23.20;;;8.90;72.50;;;;;;6114809;23;19998;-57
2021/12/20 00:24:04;;;;;;;40.42;24.23;;;8.90;72.50;;;;;;6114428;23;20020;-55
2021/12/20 00:26:30;;;;;;;40.08;23.40;;;8.90;72.50;;;;;;6123187;23;20002;-53
2021/12/20 00:28:57;;;;;;;40.40;24.10;;;8.90;72.30;;;;;;6114201;23;20006;-53
2021/12/20 00:31:23;;;;;;;40.28;23.70;;;8.90;72.20;;;;;;6112638;23;20014;-53
2021/12/20 00:33:49;;;;;;;39.53;24.08;;;8.90;72.20;;;;;;6113822;23;20001;-54
2021/12/20 00:36:21;;;;;;;39.22;23.73;;;8.90;72.10;;;;;;6113091;23;19998;-54
2021/12/20 00:41:33;;;;;;;44.25;25.23;;;9.00;71.80;;;;;;6124750;23;20013;-56
2021/12/20 00:43:59;;;;;;;44.47;26.08;;;8.90;71.70;;;;;;6115285;23;20210;-54
2021/12/20 00:46:27;;;;;;;45.67;26.73;;;8.90;71.80;;;;;;6112535;23;20002;-57
2021/12/20 00:48:53;;;;;;;48.22;26.10;;;8.90;71.90;;;;;;6112324;23;20006;-51
2021/12/20 00:51:19;;;;;;;38.70;25.02;;;8.80;71.90;;;;;;6113226;23;20010;-54
2021/12/20 00:53:45;;;;;;;47.50;27.92;;;8.80;72.20;;;;;;6115012;23;20254;-54
2021/12/20 00:56:11;;;;;;;53.85;29.70;;;8.80;72.20;;;;;;6112044;23;20013;-54
2021/12/20 00:58:37;;;;;;;45.22;26.50;;;8.90;72.30;;;;;;6113476;23;20009;-54
2021/12/20 01:01:05;;;;;;;43.63;27.00;;;8.90;72.30;;;;;;6114126;23;20006;-56
2021/12/20 01:03:31;;;;;;;55.38;27.30;;;8.90;72.30;;;;;;6114099;23;20002;-54
2021/12/20 01:06:01;;;;;;;49.42;27.92;;;8.90;72.10;;;;;;6113760;23;20021;-55
2021/12/20 01:08:32;;;;;;;51.60;28.55;;;8.90;72.10;;;;;;6113960;23;19998;-54
2021/12/20 01:11:00;;;;;;;45.85;27.88;;;9.00;72.00;;;;;;6122419;23;20186;-57
2021/12/20 01:13:29;;;;;;;47.17;27.55;;;8.90;71.90;;;;;;6113039;23;20398;-54
2021/12/20 01:15:58;;;;;;;50.03;27.88;;;8.90;71.90;;;;;;6110786;23;20010;-56
2021/12/20 01:18:24;;;;;;;55.53;27.80;;;8.90;71.90;;;;;;6112954;23;20002;-54
2021/12/20 01:20:51;;;;;;;49.40;28.60;;;9.00;71.90;;;;;;6114371;23;20067;-54
2021/12/20 01:23:18;;;;;;;52.60;26.15;;;9.00;71.80;;;;;;6114380;23;20339;-54
2021/12/20 01:25:45;;;;;;;46.88;26.17;;;9.00;71.80;;;;;;6115256;23;20013;-52
2021/12/20 01:28:12;;;;;;;55.67;27.58;;;9.00;72.20;;;;;;6113588;23;20013;-55
2021/12/20 01:30:40;;;;;;;51.20;27.60;;;9.00;71.70;;;;;;6113415;23;20002;-56
2021/12/20 01:33:12;;;;;;;51.63;28.05;;;8.90;71.50;;;;;;6109924;23;20006;-57
2021/12/20 01:35:39;;;;;;;43.88;25.77;;;8.90;71.60;;;;;;6112972;23;20005;-55
2021/12/20 01:38:05;;;;;;;45.10;25.67;;;8.90;71.70;;;;;;6114544;23;20002;-54
2021/12/20 01:40:34;;;;;;;55.15;28.85;;;8.90;71.80;;;;;;6115275;23;20002;-54
2021/12/20 01:43:02;;;;;;;53.78;29.42;;;8.90;71.80;;;;;;6136683;23;20009;-55
2021/12/20 01:45:29;;;;;;;50.65;27.85;;;8.90;71.70;;;;;;6114735;23;20010;-53
2021/12/20 01:48:09;;;;;;;57.10;28.83;;;8.90;71.70;;;;;;6111898;23;20002;-56
2021/12/20 01:53:16;;;;;;;52.78;29.45;;;8.90;71.70;;;;;;6123325;23;20006;-56
2021/12/20 01:55:42;;;;;;;54.25;29.25;;;8.90;71.80;;;;;;6112796;23;20002;-55
2021/12/20 01:58:08;;;;;;;52.33;28.27;;;8.90;71.80;;;;;;6113080;23;20740;-55
2021/12/20 02:00:37;;;;;;;51.10;28.92;;;8.90;71.80;;;;;;6116537;23;20006;-55
2021/12/20 02:03:03;;;;;;;51.92;28.15;;;8.90;71.70;;;;;;6115350;23;20001;-56
2021/12/20 02:05:55;;;;;;;55.13;28.88;;;8.90;71.80;;;;;;6114365;23;20006;-55
2021/12/20 02:10:49;;;;;;;57.33;29.63;;;9.00;71.70;;;;;;6124743;23;20029;-57
2021/12/20 02:13:17;;;;;;;55.25;29.17;;;8.90;71.60;;;;;;6113691;23;20006;-57
2021/12/20 02:15:44;;;;;;;59.67;29.48;;;8.90;72.40;;;;;;6116477;23;20152;-56
2021/12/20 02:18:10;;;;;;;54.83;29.50;;;8.90;71.80;;;;;;6110291;23;20006;-57
2021/12/20 02:20:38;;;;;;;55.50;29.38;;;8.90;71.70;;;;;;6116807;23;20006;-54
2021/12/20 02:23:05;;;;;;;51.05;28.50;;;8.90;71.70;;;;;;6116959;23;20009;-56
2021/12/20 02:25:33;;;;;;;59.90;29.10;;;8.80;71.70;;;;;;6116362;23;20010;-53
2021/12/20 02:28:04;;;;;;;51.85;28.08;;;8.80;71.80;;;;;;6115321;23;20450;-56
2021/12/20 02:38:36;;;;;;;46.67;23.95;;;8.80;71.60;;;;;;6120347;23;20461;-57
2021/12/20 02:41:15;;;;;;;42.72;22.15;;;8.90;71.40;;;;;;6116048;23;20017;-55
2021/12/20 02:43:53;;;;;;;51.08;24.00;;;8.90;71.00;;;;;;6126401;23;20639;-53
2021/12/20 02:49:13;;;;;;;46.00;24.88;;;8.80;70.90;;;;;;6124552;23;19998;-55
2021/12/20 02:51:40;;;;;;;43.80;24.10;;;8.80;71.00;;;;;;6115602;23;20010;-56
2021/12/20 02:54:09;;;;;;;52.38;24.50;;;8.80;71.00;;;;;;6116372;23;20002;-57
2021/12/20 02:56:36;;;;;;;52.10;26.13;;;8.80;71.00;;;;;;6116911;23;20009;-53
2021/12/20 02:59:04;;;;;;;49.17;25.50;;;8.70;71.10;;;;;;6115104;23;20061;-57
2021/12/20 03:01:31;;;;;;;51.95;24.35;;;8.70;71.20;;;;;;6112949;23;20431;-53
2021/12/20 03:03:58;;;;;;;55.20;24.83;;;8.70;71.40;;;;;;6116131;23;20029;-55
2021/12/20 03:06:39;;;;;;;49.58;25.20;;;8.60;71.40;;;;;;6114418;23;19998;-56
2021/12/20 03:09:08;;;;;;;45.63;24.85;;;8.60;71.60;;;;;;6125234;23;20006;-54
2021/12/20 03:11:36;;;;;;;49.53;25.60;;;8.60;71.60;;;;;;6114832;23;20006;-55
2021/12/20 03:14:20;;;;;;;51.08;26.42;;;8.60;71.70;;;;;;6114885;23;20002;-57
2021/12/20 03:16:47;;;;;;;49.75;26.02;;;8.60;71.70;;;;;;6122877;23;19998;-55
2021/12/20 03:19:13;;;;;;;50.63;26.00;;;8.60;71.80;;;;;;6113799;23;20012;-56
2021/12/20 03:21:40;;;;;;;58.33;27.08;;;8.60;71.80;;;;;;6113008;23;20439;-54
2021/12/20 03:24:07;;;;;;;53.38;27.02;;;8.60;72.60;;;;;;6116518;23;20018;-55
2021/12/20 03:26:34;;;;;;;57.33;28.27;;;8.60;71.90;;;;;;6116270;23;19998;-54
2021/12/20 03:29:00;;;;;;;62.22;28.90;;;8.70;71.90;;;;;;6115780;23;20013;-53
2021/12/20 03:31:27;;;;;;;65.22;29.33;;;8.60;71.90;;;;;;6113474;23;20625;-57
2021/12/20 03:33:53;;;;;;;54.45;27.45;;;8.70;72.00;;;;;;6113971;23;20017;-55
2021/12/20 03:36:19;;;;;;;55.58;29.50;;;8.60;71.90;;;;;;6116298;23;20416;-54
2021/12/20 03:38:46;;;;;;;63.83;29.10;;;8.70;72.00;;;;;;6114935;23;20002;-57
2021/12/20 03:41:12;;;;;;;70.97;30.48;;;8.70;72.10;;;;;;6116047;23;20444;-55
2021/12/20 03:43:38;;;;;;;58.22;30.05;;;8.60;72.10;;;;;;6113338;23;20248;-55
2021/12/20 03:46:05;;;;;;;68.88;30.27;;;8.70;72.10;;;;;;6113276;23;20013;-56
2021/12/20 03:48:32;;;;;;;71.50;32.08;;;8.70;72.10;;;;;;6113609;23;20021;-56
2021/12/20 03:51:02;;;;;;;59.45;30.33;;;8.70;72.10;;;;;;6116355;23;19998;-57
2021/12/20 03:53:30;;;;;;;62.08;31.30;;;8.70;72.10;;;;;;6115413;23;20002;-57
2021/12/20 03:55:56;;;;;;;61.28;30.13;;;8.70;72.10;;;;;;6116027;23;20461;-54
2021/12/20 03:58:23;;;;;;;64.30;30.40;;;8.80;72.10;;;;;;6113339;23;20002;-56
2021/12/20 04:00:49;;;;;;;60.00;30.63;;;8.80;72.00;;;;;;6111314;23;20021;-57
2021/12/20 04:03:16;;;;;;;62.70;30.55;;;8.80;72.00;;;;;;6112220;23;20006;-55
2021/12/20 04:05:42;;;;;;;61.55;29.50;;;8.80;72.00;;;;;;6115739;23;20002;-53
2021/12/20 04:08:09;;;;;;;65.03;28.70;;;8.80;71.90;;;;;;6115067;23;20032;-54
2021/12/20 04:10:35;;;;;;;56.03;28.70;;;8.80;71.90;;;;;;6115506;23;20002;-55
2021/12/20 04:13:02;;;;;;;55.13;29.17;;;8.80;71.70;;;;;;6113963;23;20009;-57
2021/12/20 04:15:28;;;;;;;66.18;29.00;;;8.80;71.60;;;;;;6115360;23;20005;-55
2021/12/20 04:17:54;;;;;;;64.65;29.33;;;8.80;71.60;;;;;;6112901;23;20035;-54
2021/12/20 04:20:21;;;;;;;55.72;26.65;;;8.80;71.50;;;;;;6115402;23;20434;-55
2021/12/20 04:22:47;;;;;;;52.30;26.27;;;8.80;71.50;;;;;;6113792;23;20002;-57
2021/12/20 04:25:13;;;;;;;57.75;26.55;;;8.80;71.40;;;;;;6113381;23;20010;-55
2021/12/20 04:27:39;;;;;;;56.38;27.42;;;8.80;71.30;;;;;;6115409;23;20025;-56
2021/12/20 04:30:10;;;;;;;54.42;27.60;;;8.80;71.20;;;;;;6114295;23;20002;-55
2021/12/20 04:32:39;;;;;;;59.03;27.13;;;8.80;71.20;;;;;;6112645;23;20012;-54
2021/12/20 04:35:07;;;;;;;56.90;27.42;;;8.80;71.20;;;;;;6115778;23;20006;-57
2021/12/20 04:37:33;;;;;;;61.22;28.02;;;8.80;71.20;;;;;;6113288;23;20462;-52
2021/12/20 04:40:05;;;;;;;73.28;30.42;;;8.70;71.30;;;;;;6114087;23;20483;-57
2021/12/20 04:42:31;;;;;;;55.00;27.60;;;8.70;71.40;;;;;;6113842;23;20006;-55
2021/12/20 04:44:57;;;;;;;62.10;28.20;;;8.70;71.40;;;;;;6114446;23;20400;-55
2021/12/20 04:47:23;;;;;;;62.13;29.55;;;8.70;71.60;;;;;;6111924;23;20445;-55
2021/12/20 04:49:50;;;;;;;65.45;29.15;;;8.60;71.60;;;;;;6114112;23;20002;-54
2021/12/20 04:52:16;;;;;;;58.97;27.75;;;8.60;71.70;;;;;;6112815;23;20006;-55
2021/12/20 04:54:42;;;;;;;70.55;29.55;;;8.60;71.70;;;;;;6113323;23;20006;-53
2021/12/20 04:57:09;;;;;;;54.97;28.80;;;8.60;71.90;;;;;;6114486;23;20207;-54
2021/12/20 04:59:35;;;;;;;66.35;29.02;;;8.60;71.90;;;;;;6114395;23;20002;-55
2021/12/20 05:02:02;;;;;;;60.50;29.63;;;8.60;71.90;;;;;;6109476;23;19998;-52
2021/12/20 05:04:28;;;;;;;60.40;29.42;;;8.70;71.90;;;;;;6111660;23;20017;-52
2021/12/20 05:06:54;;;;;;;52.95;25.98;;;8.70;71.80;;;;;;6114402;23;20438;-54
2021/12/20 05:09:25;;;;;;;57.28;25.25;;;8.70;71.70;;;;;;6113334;23;20002;-53
2021/12/20 05:12:00;;;;;;;51.08;24.02;;;8.70;71.50;;;;;;6113752;23;20423;-51
2021/12/20 05:14:27;;;;;;;58.65;25.65;;;8.70;71.40;;;;;;6113821;23;20698;-55
2021/12/20 05:16:53;;;;;;;63.42;24.10;;;8.70;71.40;;;;;;6106897;23;20032;-55
2021/12/20 05:19:19;;;;;;;49.17;25.33;;;8.70;71.30;;;;;;6110713;23;20009;-55
2021/12/20 05:21:45;;;;;;;46.20;23.88;;;8.70;71.30;;;;;;6114998;23;20440;-54
2021/12/20 05:24:11;;;;;;;61.85;26.20;;;8.70;71.40;;;;;;6114856;23;20017;-55
2021/12/20 05:26:38;;;;;;;52.55;23.23;;;8.70;71.30;;;;;;6113223;23;20006;-57
2021/12/20 05:29:07;;;;;;;49.30;22.85;;;8.80;71.10;;;;;;6111155;23;19998;-52
2021/12/20 05:31:34;;;;;;;53.75;24.13;;;8.80;70.80;;;;;;6108843;23;20014;-55
2021/12/20 05:34:01;;;;;;;47.92;23.40;;;8.70;70.60;;;;;;6115253;23;19994;-56
2021/12/20 05:36:27;;;;;;;53.85;23.88;;;8.70;70.70;;;;;;6116723;23;20012;-54
2021/12/20 05:38:53;;;;;;;56.42;24.10;;;8.70;70.60;;;;;;6114916;23;19994;-54
2021/12/20 05:41:19;;;;;;;41.85;21.60;;;8.70;70.60;;;;;;6113771;23;20002;-53
2021/12/20 05:43:46;;;;;;;55.13;21.83;;;8.70;70.60;;;;;;6117217;23;19998;-55
2021/12/20 05:46:12;;;;;;;45.28;22.13;;;8.70;70.50;;;;;;6114707;23;20010;-54
2021/12/20 05:48:38;;;;;;;43.78;21.60;;;8.70;70.50;;;;;;6113803;23;20005;-54
2021/12/20 05:51:05;;;;;;;47.40;22.63;;;8.70;70.40;;;;;;6115430;23;20006;-56
2021/12/20 05:53:31;;;;;;;55.47;23.63;;;8.80;70.50;;;;;;6115864;23;20013;-56
2021/12/20 05:55:57;;;;;;;43.72;21.02;;;8.80;70.50;;;;;;6117441;23;20006;-55
2021/12/20 05:58:23;;;;;;;43.97;21.75;;;8.80;70.30;;;;;;6114633;23;20611;-54
2021/12/20 06:00:50;;;;;;;52.65;22.27;;;8.80;70.30;;;;;;6113551;23;20013;-52
2021/12/20 06:03:16;;;;;;;38.45;20.40;;;8.80;70.30;;;;;;6114884;23;20005;-57
2021/12/20 06:05:42;;;;;;;42.00;19.92;;;8.80;70.10;;;;;;6112290;23;20006;-54
2021/12/20 06:08:10;;;;;;;44.17;19.63;;;8.80;70.00;;;;;;6115982;23;20402;-53
2021/12/20 06:10:37;;;;;;;51.53;19.20;;;8.80;69.80;;;;;;6115382;23;20017;-53
2021/12/20 06:13:04;;;;;;;38.40;18.85;;;8.80;69.50;;;;;;6115479;23;20017;-56
2021/12/20 06:15:30;;;;;;;42.60;17.60;;;8.80;69.40;;;;;;6116165;23;20013;-54
2021/12/20 06:17:57;;;;;;;50.17;19.20;;;8.80;69.20;;;;;;6113777;23;20394;-55
2021/12/20 06:20:24;;;;;;;40.97;17.45;;;8.80;69.10;;;;;;6114028;23;20002;-56
2021/12/20 06:22:51;;;;;;;44.95;18.70;;;8.70;69.00;;;;;;6115434;23;19998;-56
2021/12/20 06:25:18;;;;;;;42.03;17.50;;;8.70;68.90;;;;;;6113573;23;20026;-55
2021/12/20 06:27:44;;;;;;;43.70;17.05;;;8.70;68.90;;;;;;6115715;23;20021;-56
2021/12/20 06:30:11;;;;;;;48.33;17.55;;;8.70;68.80;;;;;;6112236;23;20432;-57
2021/12/20 06:32:39;;;;;;;42.65;16.60;;;8.60;68.70;;;;;;6113575;23;20317;-55
2021/12/20 06:35:07;;;;;;;39.28;16.00;;;8.60;68.90;;;;;;6113410;23;20017;-54
2021/12/20 06:37:33;;;;;;;44.08;16.75;;;8.70;69.00;;;;;;6112445;23;20022;-57
2021/12/20 06:40:00;;;;;;;40.97;13.25;;;8.60;68.80;;;;;;6112052;23;20017;-55
2021/12/20 06:42:26;;;;;;;36.20;14.25;;;8.60;68.30;;;;;;6115001;23;20061;-54
2021/12/20 06:44:52;;;;;;;33.70;13.65;;;8.60;68.20;;;;;;6114020;23;19998;-55
2021/12/20 06:47:19;;;;;;;35.88;14.05;;;8.60;68.40;;;;;;6113422;23;20009;-54
2021/12/20 06:49:46;;;;;;;33.13;13.48;;;8.60;68.50;;;;;;6112806;23;20025;-55
2021/12/20 06:52:12;;;;;;;34.08;13.93;;;8.60;68.70;;;;;;6115555;23;20006;-54
2021/12/20 06:54:39;;;;;;;33.72;13.43;;;8.60;68.70;;;;;;6114911;23;20012;-53
2021/12/20 06:57:05;;;;;;;34.92;13.95;;;8.60;68.70;;;;;;6114853;23;20002;-54
2021/12/20 06:59:31;;;;;;;35.92;13.60;;;8.70;68.80;;;;;;6113793;23;20009;-55
2021/12/20 07:01:58;;;;;;;30.33;12.82;;;8.70;68.80;;;;;;6111838;23;20002;-55
2021/12/20 07:04:24;;;;;;;38.55;14.18;;;8.70;68.70;;;;;;6112788;23;20010;-56
2021/12/20 07:06:52;;;;;;;30.50;13.95;;;8.70;68.80;;;;;;6112528;23;20002;-55
2021/12/20 07:09:18;;;;;;;39.00;16.08;;;8.80;68.70;;;;;;6112825;23;20323;-52
2021/12/20 07:11:44;;;;;;;33.65;14.60;;;8.80;68.60;;;;;;6114708;23;20009;-55
2021/12/20 07:14:11;;;;;;;35.33;13.65;;;8.80;68.50;;;;;;6115881;23;20331;-54
2021/12/20 07:16:40;;;;;;;32.83;13.70;;;8.90;69.10;;;;;;6112389;23;20002;-54
2021/12/20 07:19:07;;;;;;;30.65;13.82;;;8.80;68.30;;;;;;6114330;23;20006;-54
2021/12/20 07:21:34;;;;;;;30.55;13.23;;;8.90;68.30;;;;;;6115137;23;20014;-54
2021/12/20 07:24:00;;;;;;;34.75;12.60;;;8.90;68.40;;;;;;6113923;23;20014;-54
2021/12/20 07:26:26;;;;;;;28.20;12.55;;;8.90;68.30;;;;;;6114193;23;20257;-54
2021/12/20 07:28:53;;;;;;;32.60;14.32;;;8.90;68.20;;;;;;6113277;23;20009;-55
2021/12/20 07:31:20;;;;;;;36.25;13.88;;;8.90;68.20;;;;;;6112948;23;19998;-54
2021/12/20 07:33:47;;;;;;;32.38;13.90;;;8.90;68.10;;;;;;6113042;23;20427;-54
2021/12/20 07:36:15;;;;;;;29.75;12.40;;;8.90;68.00;;;;;;6114870;23;20002;-52
2021/12/20 07:38:42;;;;;;;27.58;12.98;;;8.90;67.90;;;;;;6113717;23;20305;-54
2021/12/20 07:41:08;;;;;;;34.00;13.27;;;8.90;67.70;;;;;;6114498;23;20010;-52
2021/12/20 07:43:34;;;;;;;37.72;13.50;;;8.90;67.60;;;;;;6113482;23;20006;-57
2021/12/20 07:46:00;;;;;;;34.13;14.18;;;8.90;67.70;;;;;;6113555;23;20010;-54
2021/12/20 07:48:27;;;;;;;35.22;14.68;;;8.90;67.30;;;;;;6112022;23;20036;-54
2021/12/20 07:50:53;;;;;;;41.88;14.80;;;8.90;67.40;;;;;;6113137;23;20029;-55
2021/12/20 07:53:19;;;;;;;31.75;13.95;;;8.90;67.40;;;;;;6113354;23;20002;-54
2021/12/20 07:55:46;;;;;;;31.80;15.10;;;8.90;67.50;;;;;;6111178;23;19994;-57
2021/12/20 07:58:12;;;;;;;36.05;17.00;;;8.90;67.40;;;;;;6113324;23;20006;-54
2021/12/20 08:00:38;;;;;;;40.20;15.40;;;8.90;67.50;;;;;;6113356;23;20005;-54
2021/12/20 08:03:05;;;;;;;41.65;16.90;;;8.90;67.40;;;;;;6114391;23;19998;-53
2021/12/20 08:05:32;;;;;;;34.30;15.95;;;8.90;67.40;;;;;;6111461;23;19998;-54
2021/12/20 08:07:59;;;;;;;33.08;16.38;;;9.00;67.50;;;;;;6112972;23;20006;-53
2021/12/20 08:10:27;;;;;;;36.90;14.63;;;9.00;67.50;;;;;;6114324;23;20013;-56
2021/12/20 08:12:54;;;;;;;37.17;12.90;;;9.00;67.50;;;;;;6114448;23;20006;-57
2021/12/20 08:15:25;;;;;;;31.52;10.52;;;9.00;67.40;;;;;;6114029;23;20025;-54
2021/12/20 08:17:52;;;;;;;31.98;11.02;;;9.00;67.00;;;;;;6122024;23;20006;-57
2021/12/20 08:20:18;;;;;;;40.65;10.65;;;9.00;66.70;;;;;;6113336;23;20006;-53
2021/12/20 08:22:45;;;;;;;31.15;9.70;;;9.00;66.00;;;;;;6114498;23;20002;-54
2021/12/20 08:25:12;;;;;;;32.78;10.35;;;9.00;65.40;;;;;;6114526;23;20018;-54
2021/12/20 08:27:39;;;;;;;29.10;10.63;;;8.90;65.90;;;;;;6112165;23;20029;-54
2021/12/20 08:30:06;;;;;;;35.75;10.73;;;8.90;65.40;;;;;;6112774;23;20002;-55
2021/12/20 08:32:33;;;;;;;32.03;11.65;;;8.90;65.40;;;;;;6112806;23;20045;-55
2021/12/20 08:34:59;;;;;;;28.50;10.05;;;8.90;65.60;;;;;;6113676;23;20021;-57
2021/12/20 08:37:25;;;;;;;26.75;7.88;;;8.90;65.80;;;;;;6112868;23;20010;-55
2021/12/20 08:39:52;;;;;;;30.77;7.25;;;8.90;65.60;;;;;;6110099;23;19994;-56
2021/12/20 08:42:19;;;;;;;29.70;7.57;;;8.90;65.70;;;;;;6111614;23;19928;-55
2021/12/20 08:44:45;;;;;;;31.00;7.88;;;8.90;65.70;;;;;;6110229;23;20024;-56
2021/12/20 08:47:11;;;;;;;53.58;21.58;;;8.90;65.60;;;;;;6110553;23;20205;-53
2021/12/20 08:49:37;;;;;;;45.63;12.63;;;8.90;65.50;;;;;;6113723;23;20006;-57
2021/12/20 08:52:04;;;;;;;31.30;9.25;;;8.90;65.50;;;;;;6112596;23;20009;-56
2021/12/20 08:54:30;;;;;;;37.25;8.07;;;8.90;65.40;;;;;;6115308;23;20006;-54
2021/12/20 08:56:57;;;;;;;26.73;7.05;;;8.90;65.30;;;;;;6114957;23;20631;-54
2021/12/20 08:59:24;;;;;;;30.67;7.30;;;9.00;65.30;;;;;;6111757;23;20002;-54
2021/12/20 09:01:50;;;;;;;20.13;5.43;;;9.00;65.10;;;;;;6113251;23;19998;-54
2021/12/20 09:04:17;;;;;;;25.38;6.50;;;9.00;64.90;;;;;;6113162;23;20013;-54
2021/12/20 09:06:44;;;;;;;26.20;7.75;;;9.00;64.60;;;;;;6113288;23;20009;-53
2021/12/20 09:09:13;;;;;;;36.05;7.78;;;9.10;64.60;;;;;;6113584;23;20002;-56
2021/12/20 09:11:40;;;;;;;23.48;7.63;;;9.10;64.50;;;;;;6115083;23;20017;-57
2021/12/20 09:14:07;;;;;;;28.45;7.35;;;9.10;64.70;;;;;;6117697;23;20010;-57
2021/12/20 09:16:33;;;;;;;32.05;7.15;;;9.10;64.70;;;;;;6114957;23;20009;-53
2021/12/20 09:18:59;;;;;;;34.45;7.53;;;9.20;64.30;;;;;;6115520;23;20002;-56
2021/12/20 09:21:26;;;;;;;32.28;5.80;;;9.20;63.70;;;;;;6115722;23;20339;-54
2021/12/20 09:23:53;;;;;;;27.58;5.32;;;9.10;63.20;;;;;;6115107;23;20010;-49
2021/12/20 09:26:20;;;;;;;30.70;6.35;;;9.10;62.80;;;;;;6125363;23;20304;-54
2021/12/20 09:28:46;;;;;;;22.55;4.43;;;9.10;62.40;;;;;;6115090;23;20516;-54
2021/12/20 09:31:12;;;;;;;25.52;4.45;;;9.10;62.10;;;;;;6115468;23;20032;-54
2021/12/20 09:33:39;;;;;;;26.95;4.72;;;9.00;61.80;;;;;;6116332;23;20339;-54
2021/12/20 09:36:06;;;;;;;24.95;4.75;;;9.00;61.70;;;;;;6117023;23;20016;-51
2021/12/20 09:38:33;;;;;;;30.98;5.07;;;9.00;61.60;;;;;;6115886;23;20626;-54
2021/12/20 09:43:47;;;;;;;25.85;3.88;;;8.90;61.20;;;;;;6126953;23;20208;-52
2021/12/20 09:46:16;;;;;;;32.28;5.40;;;8.90;60.60;;;;;;6124980;23;19998;-56
2021/12/20 09:48:51;;;;;;;25.60;4.00;;;8.90;60.80;;;;;;6114615;23;20009;-56
2021/12/20 09:51:17;;;;;;;26.15;4.88;;;8.80;60.60;;;;;;6126407;23;20005;-52
2021/12/20 09:53:44;;;;;;;39.28;5.68;;;8.80;61.00;;;;;;6116178;23;19998;-54
2021/12/20 09:56:10;;;;;;;27.58;4.28;;;8.80;61.10;;;;;;6113913;23;20002;-53
2021/12/20 09:58:39;;;;;;;26.65;5.55;;;8.80;61.00;;;;;;6116510;23;20005;-55
2021/12/20 10:01:09;;;;;;;23.95;5.22;;;8.70;60.80;;;;;;6114977;23;20014;-55
2021/12/20 10:03:36;;;;;;;24.90;4.78;;;8.70;60.90;;;;;;6115378;23;20013;-52
2021/12/20 10:06:02;;;;;;;24.73;4.47;;;8.70;60.90;;;;;;6116295;23;19998;-54
2021/12/20 10:08:34;;;;;;;30.98;4.20;;;8.70;60.90;;;;;;6115841;23;20005;-54
2021/12/20 10:11:38;;;;;;;29.50;4.35;;;8.70;60.90;;;;;;6113836;23;20366;-54
2021/12/20 10:14:10;;;;;;;25.25;4.10;;;8.70;60.60;;;;;;6055400;23;20007;-51
2021/12/20 10:16:38;;;;;;;36.40;4.20;;;8.70;60.50;;;;;;6104522;23;20335;-56
2021/12/20 10:19:09;;;;;;;27.30;5.10;;;8.60;60.30;;;;;;6115440;23;20002;-52
2021/12/20 10:21:38;;;;;;;27.48;4.68;;;8.60;60.40;;;;;;6115750;23;20015;-55
2021/12/20 10:24:04;;;;;;;23.73;4.38;;;8.60;60.60;;;;;;6116005;23;20371;-56
2021/12/20 10:26:39;;;;;;;25.13;4.13;;;8.60;60.80;;;;;;6116376;23;20005;-56
2021/12/20 10:29:16;;;;;;;;;;;8.60;60.80;;;;;;6126259;23;19998;-53
2021/12/20 10:31:42;;;;;;;33.95;5.40;;;8.70;61.00;;;;;;6123845;23;19905;-53
2021/12/20 10:34:09;;;;;;;19.52;4.00;;;8.70;60.90;;;;;;6115742;23;20006;-54
2021/12/20 10:36:35;;;;;;;27.25;4.63;;;8.70;60.50;;;;;;6116354;23;20006;-54
2021/12/20 10:39:04;;;;;;;25.38;3.95;;;8.70;61.00;;;;;;6114538;23;20411;-53
2021/12/20 10:41:35;;;;;;;26.60;5.25;;;8.60;59.90;;;;;;6116391;23;20334;-52
2021/12/20 10:44:24;;;;;;;22.70;3.95;;;8.60;60.00;;;;;;6115750;23;20017;-53
2021/12/20 10:46:56;;;;;;;32.67;4.30;;;8.60;59.80;;;;;;6123513;23;19998;-53
2021/12/20 10:49:27;;;;;;;24.02;4.88;;;8.60;59.90;;;;;;6114968;23;20013;-54
2021/12/20 10:51:54;;;;;;;28.17;4.97;;;8.60;59.70;;;;;;6115386;23;20328;-53
2021/12/20 10:54:25;;;;;;;19.48;3.80;;;8.60;59.80;;;;;;6114267;23;20012;-53
2021/12/20 10:57:00;;;;;;;21.00;3.40;;;8.60;59.70;;;;;;6125778;23;20002;-54
2021/12/20 10:59:28;;;;;;;30.90;4.72;;;8.60;59.60;;;;;;6124531;23;20024;-53
2021/12/20 11:04:31;;;;;;;19.42;3.78;;;8.60;59.60;;;;;;6125734;23;20005;-55
2021/12/20 11:09:42;;;;;;;16.42;3.65;;;8.60;59.50;;;;;;6124541;23;20006;-54
2021/12/20 11:12:12;;;;;;;34.40;4.63;;;8.70;59.50;;;;;;6115113;23;20419;-55
2021/12/20 11:14:44;;;;;;;24.83;4.43;;;8.70;59.50;;;;;;6116108;23;20257;-53
2021/12/20 11:17:13;;;;;;;20.75;3.80;;;8.70;59.40;;;;;;6114224;23;20002;-55
2021/12/20 11:19:42;;;;;;;20.85;3.58;;;8.70;59.40;;;;;;6114370;23;20029;-54
2021/12/20 11:22:11;;;;;;;23.50;4.50;;;8.70;59.30;;;;;;6114047;23;20376;-51
2021/12/20 11:24:49;;;;;;;28.88;3.60;;;8.70;59.30;;;;;;6115554;23;20021;-51
2021/12/20 11:27:18;;;;;;;27.65;4.03;;;8.70;59.20;;;;;;6125524;23;20029;-53
2021/12/20 11:29:47;;;;;;;21.48;4.25;;;8.70;59.10;;;;;;6114257;23;20310;-54
2021/12/20 11:32:14;;;;;;;21.90;3.50;;;8.70;59.10;;;;;;6113270;23;20010;-54
2021/12/20 11:34:42;;;;;;;16.13;3.70;;;8.70;59.00;;;;;;6116563;23;20002;-53
2021/12/20 11:37:10;;;;;;;14.50;3.47;;;8.70;58.90;;;;;;6115859;23;20427;-54
2021/12/20 11:39:37;;;;;;;23.83;3.80;;;8.70;58.70;;;;;;6114976;23;20008;-54
2021/12/20 11:42:06;;;;;;;26.20;3.97;;;8.70;58.60;;;;;;6115959;23;20052;-54
2021/12/20 11:44:33;;;;;;;22.52;3.72;;;8.70;58.50;;;;;;6116177;23;20009;-54
2021/12/20 11:47:24;;;;;;;20.48;3.38;;;8.70;58.40;;;;;;6114395;23;20312;-53
2021/12/20 11:50:30;;;;;;;15.98;2.90;;;8.70;58.10;;;;;;6123497;23;20010;-54
2021/12/20 11:53:08;;;;;;;17.13;3.05;;;8.70;57.50;;;;;;6101679;23;20005;-54
2021/12/20 11:55:36;;;;;;;15.70;2.50;;;8.70;57.20;;;;;;6114154;23;20005;-53
2021/12/20 11:58:14;;;;;;;14.10;2.28;;;8.70;57.40;;;;;;6115056;23;20291;-54
2021/12/20 12:00:47;;;;;;;11.57;1.95;;;8.70;56.80;;;;;;6121414;23;19998;-54
2021/12/20 12:03:18;;;;;;;6.82;1.52;;;8.70;55.90;;;;;;6124555;23;20043;-52
2021/12/20 12:05:53;;;;;;;9.00;1.88;;;8.70;55.20;;;;;;6115385;23;20439;-54
2021/12/20 12:08:24;;;;;;;10.25;2.00;;;8.70;54.50;;;;;;6124909;23;19994;-56
2021/12/20 12:10:52;;;;;;;7.80;1.30;;;8.70;54.40;;;;;;6113096;23;20002;-54
2021/12/20 12:13:19;;;;;;;12.10;2.05;;;8.70;54.20;;;;;;6115550;23;19998;-57
2021/12/20 12:15:54;;;;;;;9.48;1.60;;;8.70;53.90;;;;;;6114866;23;20006;-55
2021/12/20 12:18:48;;;;;;;11.32;2.55;;;8.70;53.40;;;;;;6112756;23;20010;-53
2021/12/20 12:21:37;;;;;;;9.27;1.60;;;8.60;52.90;;;;;;6114782;23;20370;-56
2021/12/20 12:24:05;;;;;;;8.38;1.70;;;8.70;52.90;;;;;;6121067;23;20349;-55
2021/12/20 12:26:56;;;;;;;18.15;1.92;;;8.70;53.20;;;;;;6114465;23;20002;-53
2021/12/20 12:29:23;;;;;;;10.65;1.58;;;8.70;52.80;;;;;;6115094;23;20439;-54
2021/12/20 12:31:58;;;;;;;13.98;2.13;;;8.70;52.90;;;;;;6107884;23;20016;-54
2021/12/20 12:34:38;;;;;;;4.18;1.15;;;8.70;52.90;;;;;;6120711;23;20386;-55
2021/12/20 12:37:37;;;;;;;7.07;1.70;;;8.70;52.20;;;;;;6122067;23;20006;-51
2021/12/20 12:40:23;;;;;;;8.50;1.33;;;8.70;52.30;;;;;;6099120;23;20039;-53
2021/12/20 12:42:55;;;;;;;4.75;1.20;;;8.70;52.20;;;;;;6113358;23;20017;-56
2021/12/20 12:45:49;;;;;;;9.50;1.70;;;8.70;52.80;;;;;;6124341;23;20018;-51
2021/12/20 12:48:34;;;;;;;5.50;1.25;;;8.70;52.70;;;;;;6111145;23;20344;-51
2021/12/20 12:51:04;;;;;;;11.48;1.90;;;8.70;52.40;;;;;;6112564;23;20008;-52
2021/12/20 12:53:42;;;;;;;14.15;1.65;;;8.70;52.60;;;;;;6114541;23;20013;-53
2021/12/20 12:56:35;;;;;;;8.85;1.80;;;8.70;52.10;;;;;;6112391;23;20690;-52
2021/12/20 12:59:17;;;;;;;9.43;1.83;;;8.70;52.20;;;;;;6109039;23;20017;-52
2021/12/20 13:01:51;;;;;;;10.73;1.90;;;8.70;52.30;;;;;;6109897;23;20009;-54
2021/12/20 13:04:18;;;;;;;;;;;8.70;52.40;;;;;;6123224;23;20323;-53
2021/12/20 13:06:45;;;;;;;9.07;1.65;;;8.70;52.70;;;;;;6114750;23;20111;-53
2021/12/20 13:09:11;;;;;;;14.23;2.28;;;8.80;52.80;;;;;;6112722;23;20431;-50
2021/12/20 13:11:38;;;;;;;7.78;1.27;;;8.70;52.50;;;;;;6114822;23;19998;-53
2021/12/20 13:14:16;;;;;;;9.15;1.80;;;8.70;52.50;;;;;;6112253;23;20327;-53
2021/12/20 13:16:56;;;;;;;5.68;1.30;;;8.70;52.20;;;;;;6110426;23;20014;-52